Date,TemperatureHighF,TemperatureAvgF,TemperatureLowF,DewpointHighF,DewpointAvgF,DewpointLowF,HumidityHigh,HumidityAvg,HumidityLow,PressureMaxIn,PressureMinIn,WindSpeedMaxMPH,WindSpeedAvgMPH,GustSpeedMaxMPH,PrecipitationSumIn
2013-3-1,39.0,34.3,31.2,32.2,28.3,25.1,83,79,73,0.00,0.00,9,0,9,0.00
2013-3-2,40.4,33.2,28.2,31.0,26.8,20.9,83,77,67,0.00,0.00,7,0,7,0.00
2013-3-3,33.0,27.8,24.4,21.2,18.5,16.1,77,68,58,0.00,0.00,7,1,7,0.00
2013-3-4,47.8,35.3,24.9,25.5,20.0,15.2,69,55,38,0.00,0.00,8,0,8,0.00
2013-3-5,49.1,39.0,32.7,46.3,32.4,21.0,90,77,56,0.00,0.00,8,0,8,0.12
2013-3-6,34.3,29.7,26.9,30.2,24.9,22.1,85,82,77,0.00,0.00,9,0,9,0.00
2013-3-7,37.9,31.6,28.5,30.3,25.7,23.3,83,79,73,0.00,0.00,8,0,8,0.00
2013-3-8,46.0,34.3,24.6,32.7,25.2,19.9,83,70,53,0.00,0.00,7,0,7,0.00
2013-3-9,61.5,43.9,25.5,35.7,27.5,19.5,80,56,34,0.00,0.00,10,1,10,0.00
2013-3-10,64.0,54.5,45.1,37.1,32.5,27.8,53,44,34,0.00,0.00,14,2,14,0.00
2013-3-11,55.7,52.2,49.6,49.5,45.4,34.9,91,79,48,0.00,0.00,15,2,15,0.02
2013-3-12,51.9,43.4,35.4,49.3,38.4,28.8,91,83,68,0.00,0.00,10,1,10,0.00
2013-3-13,44.9,35.8,30.0,33.5,25.9,18.1,83,68,51,0.00,0.00,10,0,10,0.00
2013-3-14,44.2,33.2,24.9,23.6,18.5,14.9,66,55,42,0.00,0.00,22,1,22,0.00
2013-3-15,65.3,46.3,30.3,41.6,30.3,16.5,69,55,36,0.00,0.00,8,0,8,0.00
2013-3-16,73.5,58.6,44.2,50.9,43.5,35.7,77,59,42,0.00,0.00,7,0,7,0.00
2013-3-17,72.1,59.7,49.8,51.8,45.7,41.4,74,61,41,0.00,0.00,11,1,11,0.00
2013-3-18,51.4,44.7,41.3,43.1,39.7,36.6,88,83,73,0.00,0.00,14,2,14,0.02
2013-3-19,53.4,45.1,35.7,41.4,33.3,17.5,89,66,41,0.00,0.00,10,0,10,0.00
2013-3-20,52.5,39.6,30.0,25.0,20.2,16.0,71,47,31,0.00,0.00,22,0,22,0.00
2013-3-21,36.5,29.5,22.2,24.4,16.6,12.1,73,59,46,0.00,0.00,8,1,8,0.00
2013-3-22,48.0,34.7,21.5,24.3,18.1,10.7,67,52,38,0.00,0.00,6,0,6,0.00
2013-3-23,55.2,44.5,37.0,43.1,33.4,23.1,75,65,51,0.00,0.00,8,0,8,0.03
2013-3-24,47.8,43.3,39.0,43.1,38.8,35.4,88,84,73,0.00,0.00,13,1,13,0.00
2013-3-25,39.3,34.8,30.9,35.4,26.7,23.2,88,73,58,0.00,0.00,13,1,13,0.00
2013-3-26,39.0,32.3,28.5,30.8,25.8,22.6,82,77,71,0.00,0.00,10,0,10,0.00
2013-3-27,42.8,34.8,30.3,30.8,26.3,21.9,81,71,60,0.00,0.00,8,1,8,0.00
2013-3-28,49.8,36.8,25.3,31.4,23.5,18.4,78,60,41,0.00,0.00,8,1,8,0.00
2013-3-29,55.9,38.4,25.5,34.5,27.3,17.6,80,65,42,0.00,0.00,8,0,8,0.00
2013-3-30,59.9,48.9,39.3,46.7,39.5,34.1,86,72,54,0.00,0.00,4,0,5,0.00
2013-3-31,60.9,52.5,47.4,53.4,46.8,39.8,88,81,57,0.00,0.00,7,0,7,0.00